Time;durP1;ratioP1;P1;durP2;ratioP2;P2;SDS_P1;SDS_P2;PMS_P1;PMS_P2;Temp;Humidity;BMP_temperature;BMP_pressure;BME280_temperature;BME280_humidity;BME280_pressure;Samples;Min_cycle;Max_cycle;Signal;HPM_P1;HPM_P2
2022/07/21 00:01:45;;;;;;;;;;;;;;;;;;4918938;29;19911;-80
2022/07/21 00:04:10;;;;;;;;;;;;;;;;;;4935473;29;19915;-79
2022/07/21 00:06:35;;;;;;;;;;;;;;;;;;4935625;29;19915;-79
2022/07/21 00:09:01;;;;;;;;;;;;;;;;;;4934550;29;19926;-81
2022/07/21 00:11:26;;;;;;;;;;;;;;;;;;4947977;29;19985;-82
2022/07/21 00:13:52;;;;;;;;;;;;;;;;;;4955378;29;19915;-80
2022/07/21 00:16:17;;;;;;;;;;;;;;;;;;4954305;29;19957;-78
2022/07/21 00:18:43;;;;;;;;;;;;;;;;;;4955470;29;19914;-78
2022/07/21 00:21:08;;;;;;;;;;;;;;;;;;4955025;29;20275;-78
2022/07/21 00:23:33;;;;;;;;;;;;;;;;;;4954003;29;19973;-79
2022/07/21 00:25:59;;;;;;;;;;;;;;;;;;4955536;29;19914;-78
2022/07/21 00:28:24;;;;;;;;;;;;;;;;;;4937512;29;19966;-79
2022/07/21 00:30:49;;;;;;;;;;;;;;;;;;4937231;29;19961;-79
2022/07/21 00:33:15;;;;;;;;;;;;;;;;;;4936878;29;20409;-78
2022/07/21 00:35:40;;;;;;;;;;;;;;;;;;4936578;29;20271;-79
2022/07/21 00:38:06;;;;;;;;;;;;;;;;;;4935464;29;19946;-78
2022/07/21 00:40:31;;;;;;;;;;;;;;;;;;4935323;29;19915;-79
2022/07/21 00:42:56;;;;;;;;;;;;;;;;;;4935259;29;20001;-81
2022/07/21 00:45:22;;;;;;;;;;;;;;;;;;4934835;29;19915;-79
2022/07/21 00:47:47;;;;;;;;;;;;;;;;;;4936312;29;19915;-81
2022/07/21 00:50:12;;;;;;;;;;;;;;;;;;4935294;29;19965;-75
2022/07/21 00:52:38;;;;;;;;;;;;;;;;;;4933897;29;20286;-77
2022/07/21 00:55:04;;;;;;;;;;;;;;;;;;4917901;29;19914;-78
2022/07/21 00:57:29;;;;;;;;;;;;;;;;;;4935200;29;19922;-77
2022/07/21 00:59:54;;;;;;;;;;;;;;;;;;4918541;29;19911;-77
2022/07/21 01:02:20;;;;;;;;;;;;;;;;;;4918270;29;20263;-76
2022/07/21 01:04:45;;;;;;;;;;;;;;;;;;4917757;29;19922;-76
2022/07/21 01:07:10;;;;;;;;;;;;;;;;;;4918135;29;19922;-81
2022/07/21 01:09:36;;;;;;;;;;;;;;;;;;4941936;29;19918;-88
2022/07/21 01:12:01;;;;;;;;;;;;;;;;;;4938140;29;20325;-83
2022/07/21 01:14:27;;;;;;;;;;;;;;;;;;4947434;29;19918;-87
2022/07/21 01:16:52;;;;;;;;;;;;;;;;;;4945610;29;19957;-87
2022/07/21 01:19:17;;;;;;;;;;;;;;;;;;4946037;29;19910;-86
2022/07/21 01:21:43;;;;;;;;;;;;;;;;;;4958023;29;19969;-87
2022/07/21 01:24:08;;;;;;;;;;;;;;;;;;4958457;29;19910;-89
2022/07/21 01:26:34;;;;;;;;;;;;;;;;;;4944260;29;19918;-86
2022/07/21 01:28:59;;;;;;;;;;;;;;;;;;4924488;29;19914;-86
2022/07/21 01:31:25;;;;;;;;;;;;;;;;;;4956820;29;19914;-85
2022/07/21 01:33:50;;;;;;;;;;;;;;;;;;4948804;29;19914;-83
2022/07/21 01:36:15;;;;;;;;;;;;;;;;;;4941300;29;20283;-86
2022/07/21 01:41:33;;;;;;;;;;;;;;;;;;4945145;29;20383;-89
2022/07/21 01:43:58;;;;;;;;;;;;;;;;;;4938520;29;19915;-85
2022/07/21 01:46:23;;;;;;;;;;;;;;;;;;4937763;29;20010;-86
2022/07/21 01:48:49;;;;;;;;;;;;;;;;;;4949655;29;19918;-86
2022/07/21 01:51:14;;;;;;;;;;;;;;;;;;4940499;29;19921;-86
2022/07/21 01:53:39;;;;;;;;;;;;;;;;;;4956519;29;19915;-87
2022/07/21 01:56:05;;;;;;;;;;;;;;;;;;4940799;29;20376;-87
2022/07/21 01:58:30;;;;;;;;;;;;;;;;;;4940747;29;19921;-86
2022/07/21 02:00:55;;;;;;;;;;;;;;;;;;4940286;29;19914;-83
2022/07/21 02:03:21;;;;;;;;;;;;;;;;;;4940243;29;19914;-83
2022/07/21 02:05:46;;;;;;;;;;;;;;;;;;4941112;29;19914;-87
2022/07/21 02:08:11;;;;;;;;;;;;;;;;;;4937126;29;19922;-87
2022/07/21 02:10:37;;;;;;;;;;;;;;;;;;4921195;29;19919;-88
2022/07/21 02:13:03;;;;;;;;;;;;;;;;;;4936556;29;19922;-87
2022/07/21 02:15:29;;;;;;;;;;;;;;;;;;4921024;29;20381;-89
2022/07/21 02:17:54;;;;;;;;;;;;;;;;;;4921179;29;19958;-88
2022/07/21 02:20:19;;;;;;;;;;;;;;;;;;4920203;29;20290;-85
2022/07/21 02:22:45;;;;;;;;;;;;;;;;;;4920769;29;20283;-84
2022/07/21 02:25:10;;;;;;;;;;;;;;;;;;4952304;28;19970;-85
2022/07/21 02:27:36;;;;;;;;;;;;;;;;;;4953048;28;19922;-85
2022/07/21 02:30:01;;;;;;;;;;;;;;;;;;4952602;29;20342;-86
2022/07/21 02:32:26;;;;;;;;;;;;;;;;;;4952180;29;19958;-85
2022/07/21 02:34:52;;;;;;;;;;;;;;;;;;4952293;29;20285;-87
2022/07/21 02:37:17;;;;;;;;;;;;;;;;;;4937321;29;20306;-90
2022/07/21 02:39:43;;;;;;;;;;;;;;;;;;4986215;23;19925;-81
2022/07/21 02:42:09;;;;;;;;;;;;;;;;;;5030295;28;19920;-81
2022/07/21 02:44:35;;;;;;;;;;;;;;;;;;4997133;28;19913;-81
2022/07/21 02:47:01;;;;;;;;;;;;;;;;;;4997423;28;19914;-81
2022/07/21 02:49:26;;;;;;;;;;;;;;;;;;5014621;28;19918;-81
2022/07/21 02:51:52;;;;;;;;;;;;;;;;;;5029886;28;19921;-81
2022/07/21 02:54:17;;;;;;;;;;;;;;;;;;5013646;28;20337;-81
2022/07/21 02:56:42;;;;;;;;;;;;;;;;;;5013366;28;20346;-80
2022/07/21 02:59:08;;;;;;;;;;;;;;;;;;5013406;28;19917;-80
2022/07/21 03:01:33;;;;;;;;;;;;;;;;;;5014335;28;19913;-81
2022/07/21 03:03:59;;;;;;;;;;;;;;;;;;5014169;28;19941;-80
2022/07/21 03:06:24;;;;;;;;;;;;;;;;;;5014267;28;19913;-81
2022/07/21 03:08:49;;;;;;;;;;;;;;;;;;5025262;28;20016;-81
2022/07/21 03:11:15;;;;;;;;;;;;;;;;;;4993740;28;20270;-81
2022/07/21 03:13:40;;;;;;;;;;;;;;;;;;4993553;28;19914;-81
2022/07/21 03:16:06;;;;;;;;;;;;;;;;;;4994187;28;19929;-81
2022/07/21 03:18:31;;;;;;;;;;;;;;;;;;5010116;28;19914;-81
2022/07/21 03:20:56;;;;;;;;;;;;;;;;;;4996609;28;20422;-81
2022/07/21 03:23:22;;;;;;;;;;;;;;;;;;4993815;28;19914;-81
2022/07/21 03:25:47;;;;;;;;;;;;;;;;;;4994498;28;20388;-80
2022/07/21 03:28:13;;;;;;;;;;;;;;;;;;4994181;28;19944;-79
2022/07/21 03:30:38;;;;;;;;;;;;;;;;;;4994248;28;19968;-80
2022/07/21 03:33:03;;;;;;;;;;;;;;;;;;4991944;28;20352;-80
2022/07/21 03:35:29;;;;;;;;;;;;;;;;;;4993185;28;19913;-81
2022/07/21 03:37:54;;;;;;;;;;;;;;;;;;5009083;28;19914;-81
2022/07/21 03:40:22;;;;;;;;;;;;;;;;;;5008382;28;19922;-81
2022/07/21 03:42:48;;;;;;;;;;;;;;;;;;4993177;28;19914;-81
2022/07/21 03:45:14;;;;;;;;;;;;;;;;;;4993301;28;19937;-80
2022/07/21 03:47:39;;;;;;;;;;;;;;;;;;4992355;28;19964;-80
2022/07/21 03:50:05;;;;;;;;;;;;;;;;;;4992997;28;20377;-80
2022/07/21 03:52:30;;;;;;;;;;;;;;;;;;4992939;28;19909;-79
2022/07/21 03:55:07;;;;;;;;;;;;;;;;;;5008071;28;19937;-79
2022/07/21 03:57:33;;;;;;;;;;;;;;;;;;4991809;28;19918;-79
2022/07/21 04:00:01;;;;;;;;;;;;;;;;;;4993569;28;20000;-80
2022/07/21 04:02:37;;;;;;;;;;;;;;;;;;5026203;28;19914;-82
2022/07/21 04:05:02;;;;;;;;;;;;;;;;;;5012680;28;19920;-82
2022/07/21 04:07:28;;;;;;;;;;;;;;;;;;5027689;28;19961;-82
2022/07/21 04:09:53;;;;;;;;;;;;;;;;;;5027742;28;19961;-81
2022/07/21 04:12:19;;;;;;;;;;;;;;;;;;5012493;28;19918;-80
2022/07/21 04:14:44;;;;;;;;;;;;;;;;;;5013026;28;19950;-83
2022/07/21 04:17:09;;;;;;;;;;;;;;;;;;5011824;28;19923;-82
2022/07/21 04:19:35;;;;;;;;;;;;;;;;;;5029110;28;20369;-81
2022/07/21 04:22:00;;;;;;;;;;;;;;;;;;4996279;28;20315;-83
2022/07/21 04:24:26;;;;;;;;;;;;;;;;;;5028378;28;20438;-82
2022/07/21 04:26:51;;;;;;;;;;;;;;;;;;5012456;28;19914;-82
2022/07/21 04:29:17;;;;;;;;;;;;;;;;;;5027475;28;19924;-82
2022/07/21 04:31:42;;;;;;;;;;;;;;;;;;5012489;28;19913;-81
2022/07/21 04:34:08;;;;;;;;;;;;;;;;;;5011851;28;19953;-81
2022/07/21 04:36:34;;;;;;;;;;;;;;;;;;4999969;28;20250;-81
2022/07/21 04:38:59;;;;;;;;;;;;;;;;;;4926392;28;1891710;-80
2022/07/21 04:41:24;;;;;;;;;;;;;;;;;;4993062;28;19913;-80
2022/07/21 04:43:50;;;;;;;;;;;;;;;;;;4992587;28;20293;-82
2022/07/21 04:46:16;;;;;;;;;;;;;;;;;;4993318;28;20170;-81
2022/07/21 04:48:41;;;;;;;;;;;;;;;;;;5008069;28;20003;-81
2022/07/21 04:51:07;;;;;;;;;;;;;;;;;;5008006;28;19981;-80
2022/07/21 04:53:32;;;;;;;;;;;;;;;;;;5005576;28;19936;-79
2022/07/21 04:55:58;;;;;;;;;;;;;;;;;;4995165;28;20008;-79
2022/07/21 04:58:23;;;;;;;;;;;;;;;;;;5012311;28;19979;-79
2022/07/21 05:00:49;;;;;;;;;;;;;;;;;;4995058;28;20032;-79
2022/07/21 05:03:14;;;;;;;;;;;;;;;;;;5011095;28;19913;-79
2022/07/21 05:05:40;;;;;;;;;;;;;;;;;;5027394;28;19918;-78
2022/07/21 05:08:06;;;;;;;;;;;;;;;;;;4994910;28;20415;-82
2022/07/21 05:10:32;;;;;;;;;;;;;;;;;;5008365;28;20270;-80
2022/07/21 05:12:57;;;;;;;;;;;;;;;;;;4959170;28;20005;-78
2022/07/21 05:15:23;;;;;;;;;;;;;;;;;;5007873;28;19914;-81
2022/07/21 05:17:48;;;;;;;;;;;;;;;;;;4991386;28;20358;-80
2022/07/21 05:20:14;;;;;;;;;;;;;;;;;;4975195;28;19933;-79
2022/07/21 05:22:40;;;;;;;;;;;;;;;;;;4992398;28;19918;-80
2022/07/21 05:25:05;;;;;;;;;;;;;;;;;;4992687;28;20423;-80
2022/07/21 05:27:31;;;;;;;;;;;;;;;;;;5011193;28;20329;-80
2022/07/21 05:29:56;;;;;;;;;;;;;;;;;;5012135;28;20012;-79
2022/07/21 05:32:21;;;;;;;;;;;;;;;;;;5027247;28;19920;-82
2022/07/21 05:34:47;;;;;;;;;;;;;;;;;;5011089;28;19921;-83
2022/07/21 05:37:12;;;;;;;;;;;;;;;;;;5011435;28;20391;-83
2022/07/21 05:39:38;;;;;;;;;;;;;;;;;;5027526;28;19917;-83
2022/07/21 05:42:04;;;;;;;;;;;;;;;;;;5011157;28;20289;-83
2022/07/21 05:44:29;;;;;;;;;;;;;;;;;;4996326;28;20122;-83
2022/07/21 05:46:55;;;;;;;;;;;;;;;;;;5007871;28;19980;-83
2022/07/21 05:49:21;;;;;;;;;;;;;;;;;;4992723;28;20281;-83
2022/07/21 05:51:46;;;;;;;;;;;;;;;;;;4993028;28;20356;-83
2022/07/21 05:54:11;;;;;;;;;;;;;;;;;;4992631;28;20340;-83
2022/07/21 05:56:37;;;;;;;;;;;;;;;;;;4996472;28;19914;-82
2022/07/21 05:59:03;;;;;;;;;;;;;;;;;;5011930;28;20348;-82
2022/07/21 06:01:28;;;;;;;;;;;;;;;;;;5015961;28;20352;-83
2022/07/21 06:03:54;;;;;;;;;;;;;;;;;;5016483;28;19919;-82
2022/07/21 06:06:19;;;;;;;;;;;;;;;;;;5016823;28;19913;-79
2022/07/21 06:08:45;;;;;;;;;;;;;;;;;;5015761;28;20285;-80
2022/07/21 06:11:10;;;;;;;;;;;;;;;;;;5016188;28;20344;-81
2022/07/21 06:13:36;;;;;;;;;;;;;;;;;;5031215;28;20433;-80
2022/07/21 06:16:01;;;;;;;;;;;;;;;;;;5030624;28;20393;-80
2022/07/21 06:18:26;;;;;;;;;;;;;;;;;;5011630;28;20295;-80
2022/07/21 06:20:52;;;;;;;;;;;;;;;;;;5030350;28;20016;-80
2022/07/21 06:23:17;;;;;;;;;;;;;;;;;;5013624;28;20006;-80
2022/07/21 06:25:43;;;;;;;;;;;;;;;;;;5015046;28;20029;-80
2022/07/21 06:28:08;;;;;;;;;;;;;;;;;;5030056;28;19913;-82
2022/07/21 06:30:34;;;;;;;;;;;;;;;;;;5030364;28;20276;-81
2022/07/21 06:32:59;;;;;;;;;;;;;;;;;;5029087;28;20377;-81
2022/07/21 06:35:25;;;;;;;;;;;;;;;;;;4993830;28;19921;-82
2022/07/21 06:37:50;;;;;;;;;;;;;;;;;;4995188;28;19980;-82
2022/07/21 06:40:16;;;;;;;;;;;;;;;;;;5010345;28;19918;-80
2022/07/21 06:42:42;;;;;;;;;;;;;;;;;;4993797;28;19914;-83
2022/07/21 06:45:07;;;;;;;;;;;;;;;;;;4995112;28;19960;-81
2022/07/21 06:47:33;;;;;;;;;;;;;;;;;;4995186;28;19917;-81
2022/07/21 06:50:02;;;;;;;;;;;;;;;;;;5022345;28;20022;-80
2022/07/21 06:52:27;;;;;;;;;;;;;;;;;;5017273;28;19913;-81
2022/07/21 06:54:53;;;;;;;;;;;;;;;;;;5017742;28;19913;-84
2022/07/21 06:57:18;;;;;;;;;;;;;;;;;;5035688;28;20015;-82
2022/07/21 06:59:44;;;;;;;;;;;;;;;;;;5037311;28;19910;-83
2022/07/21 07:02:09;;;;;;;;;;;;;;;;;;5024374;28;19913;-84
2022/07/21 07:04:34;;;;;;;;;;;;;;;;;;5021493;28;19920;-83
2022/07/21 07:07:00;;;;;;;;;;;;;;;;;;5006725;28;19913;-84
2022/07/21 07:09:25;;;;;;;;;;;;;;;;;;4995279;28;19937;-85
2022/07/21 07:11:52;;;;;;;;;;;;;;;;;;5009710;28;19914;-83
2022/07/21 07:14:17;;;;;;;;;;;;;;;;;;5009804;28;19914;-85
2022/07/21 07:16:43;;;;;;;;;;;;;;;;;;4994653;28;19936;-83
2022/07/21 07:19:08;;;;;;;;;;;;;;;;;;5010063;28;20004;-85
2022/07/21 07:21:34;;;;;;;;;;;;;;;;;;5009468;28;20061;-82
2022/07/21 07:23:59;;;;;;;;;;;;;;;;;;5016301;28;19914;-82
2022/07/21 07:26:24;;;;;;;;;;;;;;;;;;5012600;28;19913;-81
2022/07/21 07:28:50;;;;;;;;;;;;;;;;;;5028824;28;20380;-78
2022/07/21 07:31:16;;;;;;;;;;;;;;;;;;5028942;28;19919;-79
2022/07/21 07:33:41;;;;;;;;;;;;;;;;;;5013323;28;19987;-79
2022/07/21 07:36:10;;;;;;;;;;;;;;;;;;5028739;28;19957;-80
2022/07/21 07:38:35;;;;;;;;;;;;;;;;;;4995897;28;19921;-80
2022/07/21 07:41:01;;;;;;;;;;;;;;;;;;5026852;28;19913;-79
2022/07/21 07:43:27;;;;;;;;;;;;;;;;;;5008877;28;19968;-79
2022/07/21 07:45:52;;;;;;;;;;;;;;;;;;5008918;28;19914;-80
2022/07/21 07:48:18;;;;;;;;;;;;;;;;;;4992627;28;20203;-80
2022/07/21 07:50:43;;;;;;;;;;;;;;;;;;5009170;28;20000;-79
2022/07/21 07:53:09;;;;;;;;;;;;;;;;;;4992444;28;19914;-81
2022/07/21 07:55:34;;;;;;;;;;;;;;;;;;5009083;28;19957;-81
2022/07/21 07:57:59;;;;;;;;;;;;;;;;;;4995443;28;19918;-80
2022/07/21 08:00:25;;;;;;;;;;;;;;;;;;5005599;28;20535;-84
2022/07/21 08:02:50;;;;;;;;;;;;;;;;;;5013799;28;19913;-83
2022/07/21 08:05:16;;;;;;;;;;;;;;;;;;5011187;28;19925;-84
2022/07/21 08:07:45;;;;;;;;;;;;;;;;;;4992778;28;20302;-84
2022/07/21 08:10:11;;;;;;;;;;;;;;;;;;5008926;28;19956;-84
2022/07/21 08:12:37;;;;;;;;;;;;;;;;;;4992351;28;19914;-86
2022/07/21 08:15:02;;;;;;;;;;;;;;;;;;4992579;28;19914;-84
2022/07/21 08:17:30;;;;;;;;;;;;;;;;;;5006388;28;20356;-83
2022/07/21 08:19:56;;;;;;;;;;;;;;;;;;5008511;28;19914;-85
2022/07/21 08:22:21;;;;;;;;;;;;;;;;;;5008256;28;20324;-80
2022/07/21 08:24:47;;;;;;;;;;;;;;;;;;4995679;28;19963;-81
2022/07/21 08:27:12;;;;;;;;;;;;;;;;;;5008125;28;19909;-80
2022/07/21 08:29:38;;;;;;;;;;;;;;;;;;4993097;28;19972;-81
2022/07/21 08:32:03;;;;;;;;;;;;;;;;;;4992078;28;19929;-82
2022/07/21 08:34:30;;;;;;;;;;;;;;;;;;4975947;28;20336;-81
2022/07/21 08:36:56;;;;;;;;;;;;;;;;;;4991733;28;19914;-82
2022/07/21 08:39:21;;;;;;;;;;;;;;;;;;5037217;23;19991;-91
2022/07/21 08:41:49;;;;;;;;;;;;;;;;;;4975354;28;19921;-92
2022/07/21 08:44:14;;;;;;;;;;;;;;;;;;4991386;28;20290;-95
2022/07/21 08:46:40;;;;;;;;;;;;;;;;;;4975644;28;20008;-91
2022/07/21 08:49:05;;;;;;;;;;;;;;;;;;4976015;28;19924;-92
2022/07/21 08:51:40;;;;;;;;;;;;;;;;;;4952029;28;19914;-94
2022/07/21 08:54:14;;;;;;;;;;;;;;;;;;4976850;28;19942;-83
2022/07/21 08:56:40;;;;;;;;;;;;;;;;;;4955742;28;19922;-84
2022/07/21 08:59:05;;;;;;;;;;;;;;;;;;4973475;28;19994;-83
2022/07/21 09:01:30;;;;;;;;;;;;;;;;;;4975984;28;19914;-83
2022/07/21 09:03:56;;;;;;;;;;;;;;;;;;4972987;28;19914;-85
2022/07/21 09:06:21;;;;;;;;;;;;;;;;;;4971988;28;19993;-83
2022/07/21 09:08:46;;;;;;;;;;;;;;;;;;4973000;28;19918;-85
2022/07/21 09:11:12;;;;;;;;;;;;;;;;;;4972150;28;19915;-82
2022/07/21 09:13:37;;;;;;;;;;;;;;;;;;4973384;28;19910;-86
2022/07/21 09:16:03;;;;;;;;;;;;;;;;;;4988135;28;20105;-85
2022/07/21 09:18:28;;;;;;;;;;;;;;;;;;4988260;28;19928;-84
2022/07/21 09:20:53;;;;;;;;;;;;;;;;;;4973097;28;19914;-84
2022/07/21 09:23:19;;;;;;;;;;;;;;;;;;4987847;28;19985;-80
2022/07/21 09:25:44;;;;;;;;;;;;;;;;;;4972209;28;19921;-84
2022/07/21 09:28:10;;;;;;;;;;;;;;;;;;4971886;28;19960;-84
2022/07/21 09:30:35;;;;;;;;;;;;;;;;;;4974577;28;19919;-84
2022/07/21 09:33:00;;;;;;;;;;;;;;;;;;4976811;28;19922;-85
2022/07/21 09:35:26;;;;;;;;;;;;;;;;;;4977177;28;20354;-86
2022/07/21 09:37:51;;;;;;;;;;;;;;;;;;4976005;28;19914;-87
2022/07/21 09:40:17;;;;;;;;;;;;;;;;;;4959644;28;20001;-85
2022/07/21 09:42:42;;;;;;;;;;;;;;;;;;4976272;28;19965;-80
2022/07/21 09:45:08;;;;;;;;;;;;;;;;;;4976690;28;20337;-82
2022/07/21 09:47:33;;;;;;;;;;;;;;;;;;4977318;28;19925;-84
2022/07/21 09:49:58;;;;;;;;;;;;;;;;;;4975427;28;20339;-84
2022/07/21 09:52:24;;;;;;;;;;;;;;;;;;4975283;28;20376;-83
2022/07/21 09:54:49;;;;;;;;;;;;;;;;;;4976535;28;19926;-85
2022/07/21 09:57:15;;;;;;;;;;;;;;;;;;4975423;28;20235;-82
2022/07/21 09:59:40;;;;;;;;;;;;;;;;;;4975611;28;19944;-83
2022/07/21 10:02:05;;;;;;;;;;;;;;;;;;4976566;28;19918;-87
2022/07/21 10:04:31;;;;;;;;;;;;;;;;;;4975713;28;19914;-85
2022/07/21 10:06:56;;;;;;;;;;;;;;;;;;4976286;28;19921;-81
2022/07/21 10:09:22;;;;;;;;;;;;;;;;;;4975057;28;19925;-80
2022/07/21 10:11:47;;;;;;;;;;;;;;;;;;4975218;28;19921;-82
2022/07/21 10:14:15;;;;;;;;;;;;;;;;;;4975046;28;19969;-83
2022/07/21 10:16:41;;;;;;;;;;;;;;;;;;4969236;28;20326;-84
2022/07/21 10:19:06;;;;;;;;;;;;;;;;;;4957379;28;19977;-81
2022/07/21 10:21:34;;;;;;;;;;;;;;;;;;4955699;29;19915;-82
2022/07/21 10:24:00;;;;;;;;;;;;;;;;;;4955499;29;20317;-81
2022/07/21 10:26:25;;;;;;;;;;;;;;;;;;4955488;29;19914;-83
2022/07/21 10:28:51;;;;;;;;;;;;;;;;;;4955685;29;19944;-85
2022/07/21 10:31:16;;;;;;;;;;;;;;;;;;4955263;29;19929;-82
2022/07/21 10:33:42;;;;;;;;;;;;;;;;;;4966688;28;19980;-86
2022/07/21 10:36:07;;;;;;;;;;;;;;;;;;4974887;28;19990;-79
2022/07/21 10:38:32;;;;;;;;;;;;;;;;;;4974463;28;19914;-77
2022/07/21 10:40:58;;;;;;;;;;;;;;;;;;4990151;28;19922;-79
2022/07/21 10:43:23;;;;;;;;;;;;;;;;;;4975743;28;19920;-83
2022/07/21 10:45:48;;;;;;;;;;;;;;;;;;4971169;28;19922;-80
2022/07/21 10:48:14;;;;;;;;;;;;;;;;;;4957917;28;20255;-79
2022/07/21 10:50:39;;;;;;;;;;;;;;;;;;4974181;28;20037;-81
2022/07/21 10:53:05;;;;;;;;;;;;;;;;;;4967516;28;19922;-83
2022/07/21 10:55:30;;;;;;;;;;;;;;;;;;4975668;28;19973;-86
2022/07/21 10:57:55;;;;;;;;;;;;;;;;;;4975410;28;19919;-84
2022/07/21 11:00:21;;;;;;;;;;;;;;;;;;4983656;28;19918;-84
2022/07/21 11:02:46;;;;;;;;;;;;;;;;;;4974363;28;20531;-83
2022/07/21 11:05:12;;;;;;;;;;;;;;;;;;4980639;28;19914;-83
2022/07/21 11:07:37;;;;;;;;;;;;;;;;;;4979613;28;20290;-81
2022/07/21 11:10:02;;;;;;;;;;;;;;;;;;4973479;28;19965;-80
2022/07/21 11:12:28;;;;;;;;;;;;;;;;;;4974799;28;19914;-82
2022/07/21 11:14:53;;;;;;;;;;;;;;;;;;4974598;28;19921;-83
2022/07/21 11:17:19;;;;;;;;;;;;;;;;;;4973367;28;19969;-82
2022/07/21 11:19:52;;;;;;;;;;;;;;;;;;4974833;28;19985;-82
2022/07/21 11:22:18;;;;;;;;;;;;;;;;;;4973238;28;19961;-81
2022/07/21 11:24:43;;;;;;;;;;;;;;;;;;4941615;28;19965;-82
2022/07/21 11:27:09;;;;;;;;;;;;;;;;;;4966448;28;20296;-81
2022/07/21 11:29:35;;;;;;;;;;;;;;;;;;4974494;28;19925;-80
2022/07/21 11:32:01;;;;;;;;;;;;;;;;;;4974210;28;19910;-80
2022/07/21 11:34:26;;;;;;;;;;;;;;;;;;4974176;28;19914;-82
2022/07/21 11:36:52;;;;;;;;;;;;;;;;;;4974534;28;20004;-81
2022/07/21 11:39:19;;;;;;;;;;;;;;;;;;4974247;28;19922;-82
2022/07/21 11:41:44;;;;;;;;;;;;;;;;;;4956986;28;20353;-82
2022/07/21 11:44:10;;;;;;;;;;;;;;;;;;4974406;28;19957;-80
2022/07/21 11:46:35;;;;;;;;;;;;;;;;;;4974622;28;19916;-81
2022/07/21 11:49:01;;;;;;;;;;;;;;;;;;4983349;28;20012;-81
2022/07/21 11:51:27;;;;;;;;;;;;;;;;;;4974249;28;19922;-81
2022/07/21 11:53:52;;;;;;;;;;;;;;;;;;4973404;28;20353;-79
2022/07/21 11:56:17;;;;;;;;;;;;;;;;;;4973898;28;19918;-81
2022/07/21 11:58:43;;;;;;;;;;;;;;;;;;4972784;28;19915;-82
2022/07/21 12:01:08;;;;;;;;;;;;;;;;;;4972418;28;19914;-81
2022/07/21 12:03:33;;;;;;;;;;;;;;;;;;4973580;28;19997;-81
2022/07/21 12:06:00;;;;;;;;;;;;;;;;;;4974327;28;19921;-82
2022/07/21 12:08:25;;;;;;;;;;;;;;;;;;4970350;28;19914;-83
2022/07/21 12:10:50;;;;;;;;;;;;;;;;;;4973854;28;19914;-83
2022/07/21 12:13:16;;;;;;;;;;;;;;;;;;4971754;28;20301;-82
2022/07/21 12:15:41;;;;;;;;;;;;;;;;;;4969671;28;19922;-82
2022/07/21 12:18:07;;;;;;;;;;;;;;;;;;4972828;28;20000;-80
2022/07/21 12:20:32;;;;;;;;;;;;;;;;;;4972684;28;20278;-82
2022/07/21 12:22:57;;;;;;;;;;;;;;;;;;4973582;28;19921;-82
2022/07/21 12:25:23;;;;;;;;;;;;;;;;;;4974427;28;19914;-87
2022/07/21 12:27:49;;;;;;;;;;;;;;;;;;4971095;28;20347;-86
2022/07/21 12:30:15;;;;;;;;;;;;;;;;;;4971180;28;19950;-85
2022/07/21 12:32:40;;;;;;;;;;;;;;;;;;4968302;28;19918;-84
2022/07/21 12:35:06;;;;;;;;;;;;;;;;;;4985418;28;19915;-85
2022/07/21 12:37:31;;;;;;;;;;;;;;;;;;4955497;28;19914;-85
2022/07/21 12:39:56;;;;;;;;;;;;;;;;;;4967014;28;19964;-85
2022/07/21 12:42:22;;;;;;;;;;;;;;;;;;4955808;28;20066;-84
2022/07/21 12:44:47;;;;;;;;;;;;;;;;;;4980237;28;20009;-85
2022/07/21 12:47:13;;;;;;;;;;;;;;;;;;4959544;28;19914;-83
2022/07/21 12:49:39;;;;;;;;;;;;;;;;;;4981377;28;20426;-83
2022/07/21 12:52:04;;;;;;;;;;;;;;;;;;4982915;28;20447;-85
2022/07/21 12:54:30;;;;;;;;;;;;;;;;;;4988558;28;19925;-84
2022/07/21 12:56:55;;;;;;;;;;;;;;;;;;4985315;28;19914;-84
2022/07/21 12:59:21;;;;;;;;;;;;;;;;;;4991115;28;19914;-85
2022/07/21 13:01:46;;;;;;;;;;;;;;;;;;4992770;28;19918;-83
2022/07/21 13:04:12;;;;;;;;;;;;;;;;;;4993021;28;19914;-85
2022/07/21 13:06:37;;;;;;;;;;;;;;;;;;5001124;28;19941;-84
2022/07/21 13:09:13;;;;;;;;;;;;;;;;;;5002067;28;19925;-88
2022/07/21 13:11:39;;;;;;;;;;;;;;;;;;4999536;28;19922;-86
2022/07/21 13:14:04;;;;;;;;;;;;;;;;;;5000498;28;19959;-87
2022/07/21 13:22:11;;;;;;;;;;;;;;;;;;4966453;28;19910;-86
2022/07/21 13:24:41;;;;;;;;;;;;;;;;;;4992123;28;19909;-86
2022/07/21 13:27:07;;;;;;;;;;;;;;;;;;4946669;28;19922;-85
2022/07/21 13:29:33;;;;;;;;;;;;;;;;;;4955256;29;19914;-84
2022/07/21 13:31:58;;;;;;;;;;;;;;;;;;4943105;29;19922;-83
2022/07/21 13:34:24;;;;;;;;;;;;;;;;;;4970039;23;19962;-87
2022/07/21 13:36:49;;;;;;;;;;;;;;;;;;4940841;29;19934;-88
2022/07/21 13:39:15;;;;;;;;;;;;;;;;;;4940705;29;19990;-88
2022/07/21 13:41:40;;;;;;;;;;;;;;;;;;4957011;29;19918;-87
2022/07/21 13:44:05;;;;;;;;;;;;;;;;;;4941527;29;19907;-86
2022/07/21 13:46:31;;;;;;;;;;;;;;;;;;4944794;29;20048;-87
2022/07/21 13:48:56;;;;;;;;;;;;;;;;;;4951330;29;19938;-86
2022/07/21 13:51:22;;;;;;;;;;;;;;;;;;4965491;29;19973;-87
2022/07/21 13:53:47;;;;;;;;;;;;;;;;;;4960924;28;19922;-88
2022/07/21 13:56:12;;;;;;;;;;;;;;;;;;4956361;29;19937;-85
2022/07/21 13:58:38;;;;;;;;;;;;;;;;;;4934916;29;19925;-87
2022/07/21 14:01:03;;;;;;;;;;;;;;;;;;4961478;29;19951;-88
2022/07/21 14:03:32;;;;;;;;;;;;;;;;;;4939512;29;19915;-88
2022/07/21 14:06:01;;;;;;;;;;;;;;;;;;4938724;29;19922;-88
2022/07/21 14:08:29;;;;;;;;;;;;;;;;;;4962589;29;19926;-86
2022/07/21 14:10:55;;;;;;;;;;;;;;;;;;4935233;29;20358;-87
2022/07/21 14:13:20;;;;;;;;;;;;;;;;;;4953134;29;19925;-84
2022/07/21 14:15:46;;;;;;;;;;;;;;;;;;4920557;29;19915;-85
2022/07/21 14:18:11;;;;;;;;;;;;;;;;;;4949398;29;19915;-86
2022/07/21 14:20:36;;;;;;;;;;;;;;;;;;4960976;29;19973;-84
2022/07/21 14:23:02;;;;;;;;;;;;;;;;;;4956384;28;20282;-84
2022/07/21 14:25:27;;;;;;;;;;;;;;;;;;4956292;29;20378;-81
2022/07/21 14:27:56;;;;;;;;;;;;;;;;;;4957050;29;19914;-83
2022/07/21 14:30:21;;;;;;;;;;;;;;;;;;4958981;28;20290;-82
2022/07/21 14:32:46;;;;;;;;;;;;;;;;;;4942216;29;19926;-84
2022/07/21 14:35:14;;;;;;;;;;;;;;;;;;4959519;28;19919;-85
2022/07/21 14:37:40;;;;;;;;;;;;;;;;;;4972142;28;19915;-85
2022/07/21 14:40:05;;;;;;;;;;;;;;;;;;4957026;28;19911;-86
2022/07/21 14:42:31;;;;;;;;;;;;;;;;;;4965620;28;19919;-86
2022/07/21 14:44:58;;;;;;;;;;;;;;;;;;4956356;28;19926;-85
2022/07/21 14:47:23;;;;;;;;;;;;;;;;;;4958207;28;19914;-84
2022/07/21 14:49:48;;;;;;;;;;;;;;;;;;4939108;29;19919;-85
2022/07/21 14:52:14;;;;;;;;;;;;;;;;;;4957439;29;19915;-83
2022/07/21 14:54:39;;;;;;;;;;;;;;;;;;4972679;28;19917;-84
2022/07/21 14:57:05;;;;;;;;;;;;;;;;;;4960075;29;19922;-84
2022/07/21 14:59:30;;;;;;;;;;;;;;;;;;4933398;29;19915;-79
2022/07/21 15:01:56;;;;;;;;;;;;;;;;;;4946445;29;19914;-78
2022/07/21 15:04:22;;;;;;;;;;;;;;;;;;4949692;28;20279;-79
2022/07/21 15:06:47;;;;;;;;;;;;;;;;;;4953689;29;20457;-79
2022/07/21 15:09:13;;;;;;;;;;;;;;;;;;4955340;29;19990;-79
2022/07/21 15:11:38;;;;;;;;;;;;;;;;;;4956224;28;20270;-78
2022/07/21 15:14:04;;;;;;;;;;;;;;;;;;4955726;28;19914;-79
2022/07/21 15:16:29;;;;;;;;;;;;;;;;;;4922654;29;19922;-79
2022/07/21 15:18:55;;;;;;;;;;;;;;;;;;4955638;29;19926;-83
2022/07/21 15:21:20;;;;;;;;;;;;;;;;;;4955617;28;20349;-79
2022/07/21 15:23:46;;;;;;;;;;;;;;;;;;4955172;28;19914;-78
2022/07/21 15:26:11;;;;;;;;;;;;;;;;;;4954009;29;20022;-78
2022/07/21 15:28:37;;;;;;;;;;;;;;;;;;4953881;28;19915;-78
2022/07/21 15:31:02;;;;;;;;;;;;;;;;;;4953658;28;20278;-78
2022/07/21 15:33:27;;;;;;;;;;;;;;;;;;4953499;28;20034;-80
2022/07/21 15:35:53;;;;;;;;;;;;;;;;;;4937917;29;20306;-80
2022/07/21 15:38:20;;;;;;;;;;;;;;;;;;4954669;28;19914;-77
2022/07/21 15:40:45;;;;;;;;;;;;;;;;;;4953474;29;20001;-79
2022/07/21 15:43:10;;;;;;;;;;;;;;;;;;4954597;29;20014;-81
2022/07/21 15:45:36;;;;;;;;;;;;;;;;;;4965366;28;20273;-81
2022/07/21 15:48:01;;;;;;;;;;;;;;;;;;4955072;28;19915;-83
2022/07/21 15:50:27;;;;;;;;;;;;;;;;;;4955212;28;19946;-81
2022/07/21 15:52:53;;;;;;;;;;;;;;;;;;4951863;28;19918;-81
2022/07/21 15:55:18;;;;;;;;;;;;;;;;;;4953229;28;20063;-79
2022/07/21 15:57:44;;;;;;;;;;;;;;;;;;4963810;28;19997;-81
2022/07/21 16:00:09;;;;;;;;;;;;;;;;;;4953497;29;19945;-81
2022/07/21 16:02:40;;;;;;;;;;;;;;;;;;4941644;29;19918;-79
2022/07/21 16:05:05;;;;;;;;;;;;;;;;;;4982468;23;19930;-82
2022/07/21 16:07:31;;;;;;;;;;;;;;;;;;4973156;28;20271;-81
2022/07/21 16:09:56;;;;;;;;;;;;;;;;;;4964731;28;19925;-82
2022/07/21 16:12:22;;;;;;;;;;;;;;;;;;4957982;28;19946;-83
2022/07/21 16:14:47;;;;;;;;;;;;;;;;;;4973765;28;20315;-82
2022/07/21 16:17:13;;;;;;;;;;;;;;;;;;4962331;28;19913;-84
2022/07/21 16:19:38;;;;;;;;;;;;;;;;;;4956785;28;19914;-88
2022/07/21 16:22:03;;;;;;;;;;;;;;;;;;4948996;28;20358;-87
2022/07/21 16:24:29;;;;;;;;;;;;;;;;;;4946164;28;19914;-89
2022/07/21 16:26:54;;;;;;;;;;;;;;;;;;4960658;28;20493;-87
2022/07/21 16:29:20;;;;;;;;;;;;;;;;;;4948621;28;19917;-84
2022/07/21 16:31:45;;;;;;;;;;;;;;;;;;4969606;28;20248;-87
2022/07/21 16:34:10;;;;;;;;;;;;;;;;;;4988224;28;19967;-83
2022/07/21 16:36:36;;;;;;;;;;;;;;;;;;4961316;28;19925;-85
2022/07/21 16:39:01;;;;;;;;;;;;;;;;;;4990991;28;19953;-91
2022/07/21 16:41:27;;;;;;;;;;;;;;;;;;4960630;28;19921;-90
2022/07/21 16:43:52;;;;;;;;;;;;;;;;;;4951023;28;19921;-88